createdAt,value
2018-07-24T00:00:05.121Z,84.01
2018-07-24T00:01:05.103Z,84.41
2018-07-24T00:02:05.074Z,84.07
2018-07-24T00:03:05.054Z,84.11
2018-07-24T00:04:05.031Z,84.21
2018-07-24T00:05:05.008Z,84.27
2018-07-24T00:06:04.990Z,83.88
2018-07-24T00:07:04.958Z,83.98
2018-07-24T00:08:04.941Z,83.15
2018-07-24T00:09:04.912Z,83.11
2018-07-24T00:10:04.894Z,84.31
2018-07-24T00:11:04.941Z,84.79
2018-07-24T00:12:04.845Z,84.36
2018-07-24T00:13:04.833Z,84.36
2018-07-24T00:14:04.793Z,84.27
2018-07-24T00:15:04.772Z,83.88
2018-07-24T00:16:04.749Z,84.65
2018-07-24T00:17:04.723Z,84.27
2018-07-24T00:18:04.706Z,84.27
2018-07-24T00:19:04.693Z,83.98
2018-07-24T00:20:04.656Z,84.36
2018-07-24T00:21:04.633Z,84.17
2018-07-24T00:22:04.604Z,84.27
2018-07-24T00:23:04.577Z,84.07
2018-07-24T00:24:04.561Z,84.27
2018-07-24T00:25:04.543Z,84.27
2018-07-24T00:26:04.510Z,84.84
2018-07-24T00:27:04.482Z,84.36
2018-07-24T00:28:04.469Z,84.27
2018-07-24T00:29:04.444Z,83.69
2018-07-24T00:30:04.419Z,83.69
2018-07-24T00:31:04.387Z,83.69
2018-07-24T00:32:04.414Z,83.94
2018-07-24T00:33:04.349Z,84.27
2018-07-24T00:34:04.326Z,84.42
2018-07-24T00:35:04.294Z,84.22
2018-07-24T00:36:04.272Z,83.84
2018-07-24T00:37:04.252Z,84.07
2018-07-24T00:38:04.227Z,83.94
2018-07-24T00:39:04.215Z,83.64
2018-07-24T00:40:04.173Z,83.84
2018-07-24T00:41:04.158Z,83.98
2018-07-24T00:42:04.135Z,83.78
2018-07-24T00:43:04.104Z,83.69
2018-07-24T00:44:04.080Z,83.50
2018-07-24T00:45:04.061Z,83.11
2018-07-24T00:46:04.028Z,84.17
2018-07-24T00:47:04.014Z,84.36
2018-07-24T00:48:03.989Z,85.13
2018-07-24T00:49:03.965Z,84.75
2018-07-24T00:50:03.939Z,84.42
2018-07-24T00:51:03.912Z,84.32
2018-07-24T00:52:03.891Z,84.03
2018-07-24T00:53:03.870Z,84.22
2018-07-24T00:54:03.875Z,84.61
2018-07-24T00:55:03.821Z,84.42
2018-07-24T00:56:03.808Z,84.32
2018-07-24T00:57:03.772Z,84.22
2018-07-24T00:58:03.748Z,84.61
2018-07-24T00:59:03.721Z,83.84
2018-07-24T01:00:03.706Z,83.64
2018-07-24T01:01:03.677Z,83.64
2018-07-24T01:02:03.649Z,83.84
2018-07-24T01:03:03.630Z,83.84
2018-07-24T01:04:03.618Z,83.16
2018-07-24T01:05:03.583Z,82.87
2018-07-24T01:06:03.562Z,83.36
2018-07-24T01:07:03.530Z,83.84
2018-07-24T01:08:03.517Z,83.07
2018-07-24T01:09:03.485Z,83.45
2018-07-24T01:10:03.458Z,83.84
2018-07-24T01:11:03.444Z,82.97
2018-07-24T01:12:03.440Z,84.22
2018-07-24T01:13:03.396Z,83.94
2018-07-24T01:14:03.366Z,83.74
2018-07-24T01:15:03.346Z,83.64
2018-07-24T01:16:03.318Z,83.55
2018-07-24T01:17:03.298Z,83.84
2018-07-24T01:18:03.268Z,83.07
2018-07-24T01:19:03.251Z,84.12
2018-07-24T01:20:03.238Z,83.64
2018-07-24T01:21:03.206Z,84.42
2018-07-24T01:22:03.178Z,84.32
2018-07-24T01:23:03.156Z,83.94
2018-07-24T01:24:03.131Z,83.64
2018-07-24T01:25:03.103Z,83.55
2018-07-24T01:26:03.084Z,84.52
2018-07-24T01:27:03.052Z,83.84
2018-07-24T01:28:03.037Z,84.03
2018-07-24T01:29:03.012Z,83.84
2018-07-24T01:30:02.996Z,83.36
2018-07-24T01:31:02.968Z,83.36
2018-07-24T01:32:02.940Z,83.45
2018-07-24T01:33:02.917Z,83.55
2018-07-24T01:34:02.887Z,83.07
2018-07-24T01:35:02.868Z,83.16
2018-07-24T01:36:02.847Z,83.64
2018-07-24T01:37:02.822Z,83.61
2018-07-24T01:38:02.793Z,83.64
2018-07-24T01:39:02.769Z,83.45
2018-07-24T01:40:02.755Z,83.45
2018-07-24T01:41:02.727Z,83.16
2018-07-24T01:42:02.694Z,82.78
2018-07-24T01:43:02.678Z,83.36
2018-07-24T01:44:02.648Z,82.87
2018-07-24T01:45:02.634Z,83.45
2018-07-24T01:46:02.603Z,83.03
2018-07-24T01:47:02.580Z,82.78
2018-07-24T01:48:02.552Z,83.26
2018-07-24T01:49:02.534Z,82.93
2018-07-24T01:50:02.516Z,82.83
2018-07-24T01:51:02.484Z,83.12
2018-07-24T01:52:02.477Z,82.45
2018-07-24T01:53:02.435Z,82.74
2018-07-24T01:54:02.411Z,82.78
2018-07-24T01:55:02.393Z,83.31
2018-07-24T01:56:02.361Z,82.74
2018-07-24T01:57:02.340Z,82.06
2018-07-24T01:58:02.323Z,82.16
2018-07-24T01:59:02.292Z,81.96
2018-07-24T02:00:02.269Z,82.06
2018-07-24T02:01:02.245Z,82.16
2018-07-24T02:02:02.219Z,82.35
2018-07-24T02:03:02.195Z,82.45
2018-07-24T02:04:02.178Z,82.16
2018-07-24T02:05:02.157Z,82.45
2018-07-24T02:06:02.127Z,82.06
2018-07-24T02:07:02.102Z,82.16
2018-07-24T02:08:02.075Z,82.16
2018-07-24T02:09:02.056Z,82.06
2018-07-24T02:10:02.025Z,82.06
2018-07-24T02:11:02.007Z,81.87
2018-07-24T02:12:01.984Z,81.77
2018-07-24T02:13:01.960Z,81.48
2018-07-24T02:14:01.933Z,81.87
2018-07-24T02:15:01.913Z,81.58
2018-07-24T02:16:01.885Z,81.29
2018-07-24T02:17:01.858Z,81.68
2018-07-24T02:18:01.837Z,81.29
2018-07-24T02:19:01.812Z,80.71
2018-07-24T02:20:01.789Z,81.39
2018-07-24T02:21:01.766Z,81.87
2018-07-24T02:22:01.735Z,81.68
2018-07-24T02:23:01.720Z,82.16
2018-07-24T02:24:01.686Z,82.16
2018-07-24T02:25:01.673Z,81.96
2018-07-24T02:26:01.643Z,82.26
2018-07-24T02:27:01.623Z,81.96
2018-07-24T02:28:01.597Z,82.06
2018-07-24T02:29:01.575Z,81.77
2018-07-24T02:30:01.551Z,81.20
2018-07-24T02:31:01.528Z,81.77
2018-07-24T02:32:01.618Z,81.29
2018-07-24T02:33:01.475Z,80.33
2018-07-24T02:34:01.451Z,80.52
2018-07-24T02:35:01.436Z,81.39
2018-07-24T02:36:01.408Z,81.29
2018-07-24T02:37:01.385Z,81.58
2018-07-24T02:38:01.355Z,80.71
2018-07-24T02:39:01.332Z,81.39
2018-07-24T02:40:01.311Z,81.45
2018-07-24T02:41:01.279Z,80.58
2018-07-24T02:42:01.261Z,80.96
2018-07-24T02:43:01.236Z,80.58
2018-07-24T02:44:01.210Z,81.25
2018-07-24T02:45:01.184Z,81.06
2018-07-24T02:46:01.164Z,80.87
2018-07-24T02:47:01.144Z,81.16
2018-07-24T02:48:01.115Z,81.25
2018-07-24T02:49:01.087Z,81.25
2018-07-24T02:50:01.064Z,80.77
2018-07-24T02:51:01.043Z,80.87
2018-07-24T02:52:01.017Z,80.87
2018-07-24T02:53:00.998Z,80.29
2018-07-24T02:54:00.969Z,80.68
2018-07-24T02:55:00.944Z,80.77
2018-07-24T02:56:00.923Z,80.29
2018-07-24T02:57:00.900Z,80.00
2018-07-24T02:58:00.865Z,79.90
2018-07-24T02:59:00.857Z,81.54
2018-07-24T03:00:00.825Z,80.77
2018-07-24T03:01:00.804Z,80.58
2018-07-24T03:02:00.777Z,80.87
2018-07-24T03:03:00.786Z,80.77
2018-07-24T03:04:00.778Z,80.58
2018-07-24T03:05:00.698Z,79.90
2018-07-24T03:06:00.687Z,79.81
2018-07-24T03:07:00.653Z,79.23
2018-07-24T03:08:00.633Z,80.77
2018-07-24T03:09:00.626Z,80.87
2018-07-24T03:10:00.580Z,80.68
2018-07-24T03:11:00.559Z,80.00
2018-07-24T03:12:00.535Z,80.10
2018-07-24T03:13:00.526Z,79.71
2018-07-24T03:14:00.488Z,79.71
2018-07-24T03:15:00.456Z,79.43
2018-07-24T03:16:00.441Z,79.52
2018-07-24T03:17:00.412Z,80.10
2018-07-24T03:18:00.389Z,80.68
2018-07-24T03:19:00.369Z,80.29
2018-07-24T03:20:00.333Z,81.35
2018-07-24T03:21:00.319Z,80.96
2018-07-24T03:22:00.296Z,80.77
2018-07-24T03:23:00.271Z,80.87
2018-07-24T03:24:00.250Z,81.06
2018-07-24T03:25:00.228Z,80.77
2018-07-24T03:26:00.193Z,80.10
2018-07-24T03:27:00.173Z,80.58
2018-07-24T03:28:00.156Z,79.67
2018-07-24T03:29:00.121Z,79.96
2018-07-24T03:30:00.107Z,79.77
2018-07-24T03:31:00.072Z,79.48
2018-07-24T03:32:00.050Z,78.81
2018-07-24T03:33:00.027Z,78.94
2018-07-24T03:34:00.009Z,79.03
2018-07-24T03:34:59.981Z,80.38
2018-07-24T03:35:59.954Z,80.38
2018-07-24T03:36:59.927Z,80.38
2018-07-24T03:37:59.915Z,79.81
2018-07-24T03:38:59.876Z,79.71
2018-07-24T03:39:59.870Z,80.00
2018-07-24T03:40:59.828Z,79.86
2018-07-24T03:41:59.806Z,79.67
2018-07-24T03:42:59.787Z,79.38
2018-07-24T03:43:59.757Z,79.00
2018-07-24T03:44:59.745Z,79.19
2018-07-24T03:45:59.712Z,79.00
2018-07-24T03:46:59.685Z,78.71
2018-07-24T03:47:59.664Z,78.23
2018-07-24T03:48:59.634Z,78.71
2018-07-24T03:49:59.612Z,78.81
2018-07-24T03:50:59.590Z,78.81
2018-07-24T03:51:59.562Z,79.00
2018-07-24T03:52:59.542Z,78.61
2018-07-24T03:53:59.517Z,78.71
2018-07-24T03:54:59.491Z,78.90
2018-07-24T03:55:59.466Z,78.03
2018-07-24T03:56:59.440Z,78.23
2018-07-24T03:57:59.424Z,78.03
2018-07-24T03:58:59.388Z,77.94
2018-07-24T03:59:59.366Z,77.36
2018-07-24T04:00:59.342Z,78.13
2018-07-24T04:01:59.324Z,77.65
2018-07-24T04:02:59.291Z,77.88
2018-07-24T04:03:59.275Z,78.36
2018-07-24T04:04:59.243Z,78.03
2018-07-24T04:05:59.225Z,78.17
2018-07-24T04:06:59.197Z,78.27
2018-07-24T04:07:59.189Z,78.17
2018-07-24T04:08:59.150Z,78.52
2018-07-24T04:09:59.139Z,78.56
2018-07-24T04:10:59.104Z,79.03
2018-07-24T04:11:59.081Z,78.46
2018-07-24T04:12:59.056Z,78.13
2018-07-24T04:13:59.042Z,78.36
2018-07-24T04:14:59.004Z,78.85
2018-07-24T04:15:58.977Z,78.94
2018-07-24T04:16:58.961Z,79.13
2018-07-24T04:17:58.939Z,79.23
2018-07-24T04:18:58.905Z,79.23
2018-07-24T04:19:58.889Z,79.52
2018-07-24T04:20:58.864Z,79.23
2018-07-24T04:21:58.840Z,78.81
2018-07-24T04:22:58.807Z,78.65
2018-07-24T04:23:58.785Z,79.61
2018-07-24T04:24:58.764Z,79.61
2018-07-24T04:25:58.740Z,79.90
2018-07-24T04:26:58.713Z,79.52
2018-07-24T04:27:58.686Z,79.03
2018-07-24T04:28:58.671Z,79.13
2018-07-24T04:29:58.655Z,78.65
2018-07-24T04:30:58.626Z,79.03
2018-07-24T04:31:58.596Z,79.90
2018-07-24T04:32:58.572Z,79.81
2018-07-24T04:33:58.546Z,80.29
2018-07-24T04:34:58.516Z,79.90
2018-07-24T04:35:58.492Z,79.90
2018-07-24T04:36:58.470Z,79.90
2018-07-24T04:37:58.447Z,80.00
2018-07-24T04:38:58.426Z,79.90
2018-07-24T04:39:58.440Z,79.61
2018-07-24T04:40:58.407Z,79.90
2018-07-24T04:41:58.350Z,79.52
2018-07-24T04:42:58.325Z,79.90
2018-07-24T04:43:58.298Z,80.29
2018-07-24T04:44:58.285Z,79.81
2018-07-24T04:45:58.256Z,79.71
2018-07-24T04:46:58.226Z,79.90
2018-07-24T04:47:58.213Z,79.90
2018-07-24T04:48:58.178Z,79.71
2018-07-24T04:49:58.158Z,80.10
2018-07-24T04:50:58.128Z,79.71
2018-07-24T04:51:58.107Z,79.43
2018-07-24T04:52:58.082Z,79.43
2018-07-24T04:53:58.073Z,79.33
2018-07-24T04:54:58.046Z,79.13
2018-07-24T04:55:58.007Z,78.85
2018-07-24T04:56:57.988Z,79.13
2018-07-24T04:57:57.974Z,78.85
2018-07-24T04:58:57.942Z,79.13
2018-07-24T04:59:57.906Z,79.03
2018-07-24T05:00:57.893Z,79.13
2018-07-24T05:01:57.863Z,79.03
2018-07-24T05:02:57.836Z,78.85
2018-07-24T05:03:57.817Z,78.65
2018-07-24T05:04:57.794Z,79.03
2018-07-24T05:05:57.768Z,79.08
2018-07-24T05:06:57.738Z,79.08
2018-07-24T05:07:57.720Z,78.98
2018-07-24T05:08:57.688Z,78.21
2018-07-24T05:09:57.670Z,78.50
2018-07-24T05:10:57.664Z,78.21
2018-07-24T05:11:57.620Z,79.08
2018-07-24T05:12:57.595Z,79.36
2018-07-24T05:13:57.577Z,79.17
2018-07-24T05:14:57.548Z,78.88
2018-07-24T05:15:57.551Z,79.08
2018-07-24T05:16:57.495Z,79.36
2018-07-24T05:17:57.477Z,78.98
2018-07-24T05:18:57.454Z,78.88
2018-07-24T05:19:57.425Z,79.08
2018-07-24T05:20:57.401Z,78.79
2018-07-24T05:21:57.380Z,78.69
2018-07-24T05:22:57.352Z,79.08
2018-07-24T05:23:57.327Z,79.36
2018-07-24T05:24:57.315Z,79.08
2018-07-24T05:25:57.292Z,78.98
2018-07-24T05:26:57.254Z,78.98
2018-07-24T05:27:57.234Z,78.73
2018-07-24T05:28:57.214Z,78.79
2018-07-24T05:29:57.185Z,78.79
2018-07-24T05:30:57.163Z,78.50
2018-07-24T05:31:57.140Z,78.25
2018-07-24T05:32:57.115Z,78.15
2018-07-24T05:33:57.088Z,77.86
2018-07-24T05:34:57.068Z,77.48
2018-07-24T05:35:57.039Z,77.28
2018-07-24T05:36:57.011Z,78.06
2018-07-24T05:37:56.996Z,76.80
2018-07-24T05:38:56.968Z,77.48
2018-07-24T05:39:56.992Z,77.58
2018-07-24T05:40:56.922Z,78.15
2018-07-24T05:41:56.896Z,78.15
2018-07-24T05:42:56.868Z,78.54
2018-07-24T05:43:56.848Z,78.44
2018-07-24T05:44:56.851Z,78.44
2018-07-24T05:45:56.797Z,79.02
2018-07-24T05:46:56.771Z,78.73
2018-07-24T05:47:56.747Z,78.73
2018-07-24T05:48:56.757Z,79.11
2018-07-24T05:49:56.797Z,79.54
2018-07-24T05:50:56.675Z,80.22
2018-07-24T05:51:56.659Z,80.89
2018-07-24T05:52:56.645Z,80.79
2018-07-24T05:53:56.604Z,81.47
2018-07-24T05:54:56.582Z,80.79
2018-07-24T05:55:56.558Z,80.41
2018-07-24T05:56:56.530Z,80.89
2018-07-24T05:57:56.507Z,81.37
2018-07-24T05:58:56.504Z,81.66
2018-07-24T05:59:56.463Z,81.47
2018-07-24T06:00:56.437Z,80.79
2018-07-24T06:01:56.449Z,81.12
2018-07-24T06:02:56.391Z,81.18
2018-07-24T06:03:56.374Z,81.90
2018-07-24T06:04:56.380Z,81.99
2018-07-24T06:05:56.320Z,81.80
2018-07-24T06:06:56.293Z,81.51
2018-07-24T06:07:56.273Z,81.70
2018-07-24T06:08:56.244Z,82.09
2018-07-24T06:09:56.218Z,82.48
2018-07-24T06:10:56.196Z,83.63
2018-07-24T06:11:56.178Z,82.67
2018-07-24T06:12:56.151Z,83.15
2018-07-24T06:13:56.119Z,83.15
2018-07-24T06:14:56.106Z,82.96
2018-07-24T06:15:56.073Z,83.63
2018-07-24T06:16:56.108Z,83.63
2018-07-24T06:17:56.051Z,84.21
2018-07-24T06:18:56.007Z,85.08
2018-07-24T06:19:55.980Z,84.50
2018-07-24T06:20:55.955Z,84.06
2018-07-24T06:21:55.935Z,83.87
2018-07-24T06:22:55.915Z,84.25
2018-07-24T06:23:55.888Z,84.35
2018-07-24T06:24:55.865Z,84.06
2018-07-24T06:25:55.835Z,84.25
2018-07-24T06:26:55.824Z,84.93
2018-07-24T06:27:55.792Z,84.16
2018-07-24T06:28:55.765Z,84.54
2018-07-24T06:29:55.739Z,84.44
2018-07-24T06:30:55.722Z,84.74
2018-07-24T06:31:55.697Z,84.44
2018-07-24T06:32:55.676Z,84.25
2018-07-24T06:33:55.647Z,84.64
2018-07-24T06:34:55.635Z,84.64
2018-07-24T06:35:55.620Z,84.78
2018-07-24T06:36:55.584Z,84.58
2018-07-24T06:37:55.549Z,84.88
2018-07-24T06:38:55.528Z,84.48
2018-07-24T06:39:55.510Z,84.68
2018-07-24T06:40:55.493Z,84.88
2018-07-24T06:41:55.455Z,84.39
2018-07-24T06:42:55.432Z,84.48
2018-07-24T06:43:55.407Z,85.45
2018-07-24T06:44:55.387Z,84.30
2018-07-24T06:45:55.362Z,85.26
2018-07-24T06:46:55.333Z,86.52
2018-07-24T06:47:55.318Z,85.40
2018-07-24T06:48:55.284Z,86.32
2018-07-24T06:49:55.267Z,86.36
2018-07-24T06:50:55.242Z,85.30
2018-07-24T06:51:55.262Z,85.88
2018-07-24T06:52:55.186Z,85.01
2018-07-24T06:53:55.164Z,85.11
2018-07-24T06:54:55.145Z,85.30
2018-07-24T06:55:55.116Z,85.21
2018-07-24T06:56:55.096Z,84.91
2018-07-24T06:57:55.088Z,84.33
2018-07-24T06:58:55.047Z,84.43
2018-07-24T06:59:55.030Z,84.33
2018-07-24T07:00:55.000Z,84.63
2018-07-24T07:01:54.979Z,85.59
2018-07-24T07:02:54.955Z,85.40
2018-07-24T07:03:54.930Z,84.19
2018-07-24T07:04:54.912Z,85.44
2018-07-24T07:05:54.885Z,83.80
2018-07-24T07:06:54.864Z,84.09
2018-07-24T07:07:54.837Z,84.77
2018-07-24T07:08:54.812Z,84.86
2018-07-24T07:09:54.802Z,84.95
2018-07-24T07:10:54.761Z,84.77
2018-07-24T07:11:54.749Z,86.69
2018-07-24T07:12:54.721Z,86.99
2018-07-24T07:13:54.693Z,86.51
2018-07-24T07:14:54.674Z,86.41
2018-07-24T07:15:54.645Z,86.79
2018-07-24T07:16:54.626Z,87.13
2018-07-24T07:17:54.606Z,86.35
2018-07-24T07:18:54.583Z,86.65
2018-07-24T07:19:54.552Z,86.83
2018-07-24T07:20:54.535Z,86.35
2018-07-24T07:21:54.510Z,85.29
2018-07-24T07:22:54.480Z,86.25
2018-07-24T07:23:54.463Z,86.06
2018-07-24T07:24:54.431Z,86.45
2018-07-24T07:25:54.411Z,85.29
2018-07-24T07:26:54.386Z,86.93
2018-07-24T07:27:54.369Z,85.97
2018-07-24T07:28:54.357Z,87.03
2018-07-24T07:29:54.311Z,85.77
2018-07-24T07:30:54.297Z,86.69
2018-07-24T07:31:54.271Z,86.06
2018-07-24T07:32:54.247Z,86.40
2018-07-24T07:33:54.224Z,86.01
2018-07-24T07:34:54.232Z,87.27
2018-07-24T07:35:54.180Z,86.69
2018-07-24T07:36:54.151Z,86.30
2018-07-24T07:37:54.134Z,87.75
2018-07-24T07:38:54.102Z,85.14
2018-07-24T07:39:54.079Z,81.37
2018-07-24T07:40:54.065Z,82.14
2018-07-24T07:41:54.030Z,82.72
2018-07-24T07:42:54.017Z,85.04
2018-07-24T07:43:54.005Z,84.31
2018-07-24T07:44:53.973Z,82.37
2018-07-24T07:45:53.943Z,83.44
2018-07-24T07:46:53.917Z,85.76
2018-07-24T07:47:53.897Z,83.34
2018-07-24T07:48:53.874Z,80.82
2018-07-24T07:49:53.853Z,78.79
2018-07-24T07:50:53.820Z,77.14
2018-07-24T07:51:53.807Z,78.83
2018-07-24T07:52:53.777Z,81.45
2018-07-24T07:53:53.751Z,81.25
2018-07-24T07:54:53.736Z,79.70
2018-07-24T07:55:53.710Z,77.19
2018-07-24T07:56:53.689Z,74.47
2018-07-24T07:57:53.664Z,71.86
2018-07-24T07:58:53.742Z,74.86
2018-07-24T07:59:53.624Z,76.21
2018-07-24T08:00:53.590Z,71.86
2018-07-24T08:01:53.575Z,69.92
2018-07-24T08:02:53.548Z,70.44
2018-07-24T08:03:53.520Z,72.86
2018-07-24T08:04:53.523Z,70.44
2018-07-24T08:05:53.478Z,74.51
2018-07-24T08:06:53.453Z,74.60
2018-07-24T08:07:53.425Z,74.70
2018-07-24T08:08:53.412Z,78.48
2018-07-24T08:09:53.389Z,79.16
2018-07-24T08:10:53.360Z,77.32
2018-07-24T08:11:53.336Z,76.64
2018-07-24T08:12:53.316Z,76.74
2018-07-24T08:13:53.288Z,79.06
2018-07-24T08:14:53.276Z,78.48
2018-07-24T08:15:53.248Z,75.57
2018-07-24T08:16:53.221Z,73.15
2018-07-24T08:17:53.203Z,69.85
2018-07-24T08:18:53.180Z,71.50
2018-07-24T08:19:53.150Z,70.92
2018-07-24T08:20:53.139Z,72.67
2018-07-24T08:21:53.128Z,71.89
2018-07-24T08:22:53.082Z,74.90
2018-07-24T08:23:53.069Z,73.44
2018-07-24T08:24:53.033Z,73.73
2018-07-24T08:25:53.013Z,72.51
2018-07-24T08:26:52.998Z,69.27
2018-07-24T08:27:52.973Z,69.47
2018-07-24T08:28:52.954Z,70.34
2018-07-24T08:29:52.924Z,66.95
2018-07-24T08:30:52.897Z,65.98
2018-07-24T08:31:52.879Z,68.60
2018-07-24T08:32:52.847Z,69.02
2018-07-24T08:33:52.852Z,69.12
2018-07-24T08:34:52.803Z,70.37
2018-07-24T08:35:52.788Z,69.41
2018-07-24T08:36:52.758Z,66.40
2018-07-24T08:37:52.735Z,66.60
2018-07-24T08:38:52.718Z,67.85
2018-07-24T08:39:52.699Z,66.50
2018-07-24T08:40:52.678Z,64.37
2018-07-24T08:41:52.650Z,66.50
2018-07-24T08:42:52.620Z,68.15
2018-07-24T08:43:52.606Z,70.37
2018-07-24T08:44:52.617Z,64.07
2018-07-24T08:45:52.548Z,64.37
2018-07-24T08:46:52.535Z,66.89
2018-07-24T08:47:52.505Z,67.11
2018-07-24T08:48:52.483Z,68.92
2018-07-24T08:49:52.463Z,67.69
2018-07-24T08:50:52.439Z,65.56
2018-07-24T08:51:52.417Z,65.24
2018-07-24T08:52:52.515Z,67.21
2018-07-24T08:53:52.641Z,65.95
2018-07-24T08:54:52.546Z,65.56
2018-07-24T08:55:52.330Z,67.02
2018-07-24T08:56:52.298Z,66.82
2018-07-24T08:57:52.280Z,66.72
2018-07-24T08:58:52.256Z,65.47
2018-07-24T08:59:52.230Z,62.07
2018-07-24T09:00:52.215Z,58.77
2018-07-24T09:01:52.185Z,58.77
2018-07-24T09:02:52.165Z,61.39
2018-07-24T09:03:52.201Z,62.59
2018-07-24T09:04:52.124Z,60.64
2018-07-24T09:05:52.103Z,62.01
2018-07-24T09:06:52.070Z,60.94
2018-07-24T09:07:52.061Z,62.39
2018-07-24T09:08:52.028Z,62.10
2018-07-24T09:09:52.007Z,62.88
2018-07-24T09:10:51.980Z,63.75
2018-07-24T09:11:51.955Z,58.70
2018-07-24T09:12:51.942Z,58.51
2018-07-24T09:13:51.927Z,57.83
2018-07-24T09:14:51.887Z,57.76
2018-07-24T09:15:51.866Z,56.50
2018-07-24T09:16:51.853Z,58.64
2018-07-24T09:17:51.820Z,58.64
2018-07-24T09:18:51.803Z,61.16
2018-07-24T09:19:51.779Z,61.07
2018-07-24T09:20:51.796Z,60.00
2018-07-24T09:21:51.749Z,60.19
2018-07-24T09:22:51.706Z,60.97
2018-07-24T09:23:51.683Z,61.55
2018-07-24T09:24:51.668Z,62.62
2018-07-24T09:25:51.643Z,60.28
2018-07-24T09:26:51.680Z,60.97
2018-07-24T09:27:51.607Z,60.77
2018-07-24T09:28:51.575Z,61.16
2018-07-24T09:29:51.553Z,61.07
2018-07-24T09:30:51.529Z,60.19
2018-07-24T09:31:51.512Z,61.07
2018-07-24T09:32:51.482Z,60.28
2018-07-24T09:33:51.459Z,60.19
2018-07-24T09:34:51.441Z,58.73
2018-07-24T09:35:51.428Z,58.73
2018-07-24T09:36:51.397Z,58.54
2018-07-24T09:37:51.374Z,60.48
2018-07-24T09:38:51.344Z,59.70
2018-07-24T09:39:51.331Z,57.76
2018-07-24T09:40:51.303Z,57.28
2018-07-24T09:41:51.287Z,57.98
2018-07-24T09:42:51.261Z,58.18
2018-07-24T09:43:51.233Z,57.89
2018-07-24T09:44:51.217Z,59.80
2018-07-24T09:45:51.202Z,57.69
2018-07-24T09:46:51.172Z,59.25
2018-07-24T09:47:51.150Z,60.31
2018-07-24T09:48:51.119Z,58.76
2018-07-24T09:49:51.103Z,59.92
2018-07-24T09:50:51.080Z,56.92
2018-07-24T09:51:51.059Z,57.31
2018-07-24T09:52:51.038Z,58.47
2018-07-24T09:53:51.012Z,56.62
2018-07-24T09:54:50.993Z,53.71
2018-07-24T09:55:50.962Z,53.06
2018-07-24T09:56:50.959Z,54.90
2018-07-24T09:57:50.919Z,55.19
2018-07-24T09:58:50.899Z,55.00
2018-07-24T09:59:50.877Z,57.43
2018-07-24T10:00:50.857Z,56.36
2018-07-24T10:01:50.826Z,56.16
2018-07-24T10:02:50.807Z,56.29
2018-07-24T10:03:50.798Z,56.46
2018-07-24T10:04:50.767Z,56.29
2018-07-24T10:05:50.741Z,55.61
2018-07-24T10:06:50.725Z,55.71
2018-07-24T10:07:50.707Z,55.90
2018-07-24T10:08:50.684Z,55.22
2018-07-24T10:09:50.658Z,54.93
2018-07-24T10:10:50.680Z,54.83
2018-07-24T10:11:50.615Z,54.15
2018-07-24T10:12:50.739Z,53.08
2018-07-24T10:13:50.563Z,54.15
2018-07-24T10:14:50.547Z,55.03
2018-07-24T10:15:50.523Z,53.28
2018-07-24T10:16:50.522Z,53.30
2018-07-24T10:17:50.481Z,55.05
2018-07-24T10:18:50.471Z,53.99
2018-07-24T10:19:50.437Z,53.30
2018-07-24T10:20:50.418Z,54.08
2018-07-24T10:21:50.389Z,54.96
2018-07-24T10:22:50.371Z,53.89
2018-07-24T10:23:50.347Z,52.82
2018-07-24T10:24:50.331Z,52.36
2018-07-24T10:25:50.314Z,51.67
2018-07-24T10:26:50.292Z,51.58
2018-07-24T10:27:50.257Z,51.87
2018-07-24T10:28:50.258Z,54.69
2018-07-24T10:29:50.218Z,54.11
2018-07-24T10:30:50.185Z,52.06
2018-07-24T10:31:50.175Z,52.45
2018-07-24T10:32:50.141Z,51.09
2018-07-24T10:33:50.148Z,49.73
2018-07-24T10:34:50.161Z,48.88
2018-07-24T10:35:50.161Z,48.10
2018-07-24T10:36:50.058Z,51.12
2018-07-24T10:37:50.039Z,50.04
2018-07-24T10:38:50.041Z,50.43
2018-07-24T10:39:50.025Z,49.85
2018-07-24T10:40:50.005Z,48.58
2018-07-24T10:41:49.957Z,50.34
2018-07-24T10:42:49.921Z,51.90
2018-07-24T10:43:49.912Z,52.67
2018-07-24T10:44:49.879Z,51.31
2018-07-24T10:45:49.858Z,49.56
2018-07-24T10:46:49.851Z,48.49
2018-07-24T10:47:49.815Z,49.37
2018-07-24T10:48:49.804Z,49.07
2018-07-24T10:49:49.781Z,48.68
2018-07-24T10:50:49.774Z,49.76
2018-07-24T10:51:49.738Z,49.07
2018-07-24T10:52:49.707Z,48.39
2018-07-24T10:53:49.714Z,48.39
2018-07-24T10:54:49.662Z,48.71
2018-07-24T10:55:49.646Z,50.07
2018-07-24T10:56:49.629Z,49.88
2018-07-24T10:57:49.598Z,47.44
2018-07-24T10:58:49.583Z,47.15
2018-07-24T10:59:49.556Z,47.92
2018-07-24T11:00:49.541Z,49.00
2018-07-24T11:01:49.513Z,49.00
2018-07-24T11:02:49.493Z,47.25
2018-07-24T11:03:49.469Z,47.44
2018-07-24T11:04:49.458Z,46.56
2018-07-24T11:05:49.430Z,46.47
2018-07-24T11:06:49.411Z,46.76
2018-07-24T11:07:49.380Z,45.59
2018-07-24T11:08:49.367Z,46.17
2018-07-24T11:09:49.345Z,46.37
2018-07-24T11:10:49.349Z,45.88
2018-07-24T11:11:49.413Z,45.88
2018-07-24T11:12:49.277Z,46.66
2018-07-24T11:13:49.256Z,45.78
2018-07-24T11:14:49.232Z,45.78
2018-07-24T11:15:49.231Z,45.59
2018-07-24T11:16:49.187Z,45.00
2018-07-24T11:17:49.166Z,45.49
2018-07-24T11:18:49.149Z,45.20
2018-07-24T11:19:49.129Z,45.10
2018-07-24T11:20:49.104Z,44.93
2018-07-24T11:21:49.127Z,44.64
2018-07-24T11:22:49.253Z,43.95
2018-07-24T11:23:49.073Z,43.95
2018-07-24T11:24:49.011Z,44.73
2018-07-24T11:25:48.988Z,44.46
2018-07-24T11:26:48.971Z,44.44
2018-07-24T11:27:48.959Z,44.56
2018-07-24T11:28:48.930Z,43.78
2018-07-24T11:29:48.911Z,44.07
2018-07-24T11:30:48.890Z,44.37
2018-07-24T11:31:48.861Z,45.42
2018-07-24T11:32:48.903Z,44.93
2018-07-24T11:33:48.825Z,45.34
2018-07-24T11:34:48.804Z,44.56
2018-07-24T11:35:48.855Z,44.85
2018-07-24T11:36:48.763Z,44.37
2018-07-24T11:37:48.748Z,44.85
2018-07-24T11:38:48.718Z,46.61
2018-07-24T11:39:48.697Z,43.98
2018-07-24T11:40:48.679Z,45.44
2018-07-24T11:41:48.657Z,45.54
2018-07-24T11:42:48.630Z,44.48
2018-07-24T11:43:48.607Z,42.41
2018-07-24T11:44:48.594Z,43.68
2018-07-24T11:45:48.571Z,46.14
2018-07-24T11:46:48.542Z,46.41
2018-07-24T11:47:48.528Z,46.63
2018-07-24T11:48:48.505Z,47.12
2018-07-24T11:49:48.476Z,47.12
2018-07-24T11:50:48.470Z,46.34
2018-07-24T11:51:48.468Z,46.73
2018-07-24T11:52:48.439Z,46.34
2018-07-24T11:53:48.400Z,46.44
2018-07-24T11:54:48.378Z,44.87
2018-07-24T11:55:48.349Z,45.39
2018-07-24T11:56:48.338Z,44.41
2018-07-24T11:57:48.318Z,45.09
2018-07-24T11:58:48.285Z,45.19
2018-07-24T11:59:48.276Z,47.24
2018-07-24T12:00:48.242Z,46.75
2018-07-24T12:01:48.227Z,45.09
2018-07-24T12:02:48.204Z,45.61
2018-07-24T12:03:48.182Z,44.53
2018-07-24T12:04:48.203Z,45.12
2018-07-24T12:05:48.147Z,41.99
2018-07-24T12:06:48.121Z,42.68
2018-07-24T12:07:48.148Z,43.85
2018-07-24T12:08:48.085Z,44.65
2018-07-24T12:09:48.063Z,45.62
2018-07-24T12:10:48.033Z,45.14
2018-07-24T12:11:48.020Z,43.95
2018-07-24T12:12:47.994Z,44.45
2018-07-24T12:13:47.970Z,44.65
2018-07-24T12:14:47.986Z,45.04
2018-07-24T12:15:47.933Z,44.74
2018-07-24T12:16:47.914Z,44.65
2018-07-24T12:17:47.892Z,43.28
2018-07-24T12:18:47.866Z,43.57
2018-07-24T12:19:47.847Z,43.38
2018-07-24T12:20:47.824Z,42.91
2018-07-24T12:21:47.808Z,43.20
2018-07-24T12:22:47.786Z,43.30
2018-07-24T12:23:47.762Z,43.77
2018-07-24T12:24:47.750Z,43.67
2018-07-24T12:25:47.717Z,43.57
2018-07-24T12:26:47.707Z,44.65
2018-07-24T12:27:47.676Z,45.14
2018-07-24T12:28:47.665Z,46.50
2018-07-24T12:29:47.650Z,40.45
2018-07-24T12:30:47.621Z,41.72
2018-07-24T12:31:47.597Z,40.16
2018-07-24T12:32:47.579Z,40.35
2018-07-24T12:33:47.561Z,42.60
2018-07-24T12:34:47.536Z,42.77
2018-07-24T12:35:47.525Z,44.16
2018-07-24T12:36:47.494Z,38.89
2018-07-24T12:37:47.475Z,39.57
2018-07-24T12:38:47.449Z,39.20
2018-07-24T12:39:47.440Z,40.27
2018-07-24T12:40:47.406Z,39.00
2018-07-24T12:41:47.392Z,41.76
2018-07-24T12:42:47.365Z,42.36
2018-07-24T12:43:47.363Z,41.39
2018-07-24T12:44:47.335Z,40.31
2018-07-24T12:45:47.300Z,40.11
2018-07-24T12:46:47.288Z,37.59
2018-07-24T12:47:47.282Z,38.47
2018-07-24T12:48:47.249Z,36.71
2018-07-24T12:49:47.226Z,37.49
2018-07-24T12:50:47.205Z,37.79
2018-07-24T12:51:47.179Z,37.39